Terminal Aerodrome Forecast
Issued by NWS Wakefield, VA

Home | Current Version | Previous Version | Text Only | Print | Product List | Glossary On
Versions: 1 2 3 4 5 6 7 8 9 10 11 12 13 14 15 16 17 18 19 20 21 22 23 24 25 26 27 28 29
000
FTUS41 KAKQ 250817 AAA
TAFRIC
TAF AMD
KRIC 250817Z 2508/2606 10008KT P6SM -RA OVC004
     FM250900 13007KT P6SM -RA OVC006
      TEMPO 2509/2510 2SM RA BR
     FM251100 19007KT P6SM VCSH BKN008
     FM251300 20008KT P6SM BKN015
     FM251500 21011KT P6SM BKN040
     FM251700 21012KT P6SM -SHRA BKN070
     FM252300 22012KT P6SM BKN100=

USA.gov is the U.S. government's official web portal to all federal, state and local government web resources and services.